createdAt,value
2019-03-09T00:01:52.849Z,26.80
2019-03-09T00:04:21.162Z,26.80
2019-03-09T00:06:49.422Z,26.80
2019-03-09T00:09:17.694Z,26.70
2019-03-09T00:11:45.949Z,26.70
2019-03-09T00:14:14.503Z,26.70
2019-03-09T00:16:42.827Z,26.70
2019-03-09T00:19:11.334Z,26.80
2019-03-09T00:21:39.581Z,26.70
2019-03-09T00:24:15.272Z,26.70
2019-03-09T00:26:45.457Z,26.70
2019-03-09T00:29:21.050Z,26.60
2019-03-09T00:31:53.875Z,26.60
2019-03-09T00:34:22.141Z,26.70
2019-03-09T00:36:50.394Z,26.70
2019-03-09T00:39:18.662Z,26.70
2019-03-09T00:41:46.910Z,26.70
2019-03-09T00:44:15.206Z,26.70
2019-03-09T00:46:43.517Z,26.80
2019-03-09T00:49:12.023Z,26.80
2019-03-09T00:51:40.582Z,26.80
2019-03-09T00:54:08.834Z,26.70
2019-03-09T00:56:37.386Z,26.60
2019-03-09T00:59:05.657Z,26.70
2019-03-09T01:01:34.161Z,26.80
2019-03-09T01:04:02.413Z,26.80
2019-03-09T01:06:30.682Z,26.80
2019-03-09T01:08:58.934Z,26.80
2019-03-09T01:11:27.197Z,26.80
2019-03-09T01:13:55.690Z,26.90
2019-03-09T01:16:23.958Z,26.80
2019-03-09T01:18:52.202Z,26.80
2019-03-09T01:21:20.470Z,26.90
2019-03-09T01:23:48.717Z,26.90
2019-03-09T01:26:16.981Z,27.00
2019-03-09T01:28:45.497Z,27.00
2019-03-09T01:31:13.768Z,27.00
2019-03-09T01:33:42.014Z,27.10
2019-03-09T01:36:10.526Z,27.10
2019-03-09T01:38:38.773Z,27.20
2019-03-09T01:41:07.038Z,27.20
2019-03-09T01:43:35.301Z,27.20
2019-03-09T01:46:03.558Z,27.20
2019-03-09T01:48:31.862Z,27.30
2019-03-09T01:51:00.149Z,27.30
2019-03-09T01:53:36.472Z,27.40
2019-03-09T01:55:58.391Z,27.40
2019-03-09T01:58:26.658Z,27.40
2019-03-09T02:00:54.911Z,27.50
2019-03-09T02:03:23.166Z,27.50
2019-03-09T02:05:51.424Z,27.70
2019-03-09T02:08:19.680Z,27.60
2019-03-09T02:10:47.963Z,27.70
2019-03-09T02:13:16.466Z,27.70
2019-03-09T02:15:44.776Z,27.70
2019-03-09T02:18:13.020Z,27.80
2019-03-09T02:20:41.306Z,27.70
2019-03-09T02:23:09.797Z,27.80
2019-03-09T02:25:38.066Z,27.80
2019-03-09T02:28:06.382Z,27.80
2019-03-09T02:30:34.866Z,27.90
2019-03-09T02:33:03.135Z,27.90
2019-03-09T02:35:31.376Z,28.00
2019-03-09T02:38:01.301Z,28.50
2019-03-09T02:40:30.127Z,28.00
2019-03-09T02:42:58.613Z,28.10
2019-03-09T02:45:28.759Z,28.10
2019-03-09T02:47:57.015Z,28.10
2019-03-09T02:50:25.518Z,28.10
2019-03-09T02:52:53.784Z,28.20
2019-03-09T02:55:22.034Z,28.20
2019-03-09T02:57:50.288Z,28.40
2019-03-09T03:00:21.357Z,28.20
2019-03-09T03:02:54.208Z,28.20
2019-03-09T03:05:22.471Z,28.30
2019-03-09T03:07:50.727Z,28.30
2019-03-09T03:10:19.000Z,28.30
2019-03-09T03:12:47.255Z,28.40
2019-03-09T03:15:27.901Z,28.30
2019-03-09T03:17:56.395Z,28.40
2019-03-09T03:20:24.641Z,29.00
2019-03-09T03:22:52.902Z,28.50
2019-03-09T03:25:21.151Z,28.60
2019-03-09T03:27:49.405Z,28.60
2019-03-09T03:30:17.732Z,28.70
2019-03-09T03:32:46.006Z,28.80
2019-03-09T03:35:14.271Z,28.80
2019-03-09T03:37:42.760Z,28.90
2019-03-09T03:40:11.572Z,29.00
2019-03-09T03:42:40.075Z,29.10
2019-03-09T03:45:10.453Z,29.20
2019-03-09T03:47:38.721Z,29.20
2019-03-09T03:50:07.136Z,29.30
2019-03-09T03:52:35.394Z,29.40
2019-03-09T03:55:04.235Z,29.40
2019-03-09T03:57:32.489Z,29.40
2019-03-09T04:00:01.010Z,29.40
2019-03-09T04:02:29.339Z,29.40
2019-03-09T04:04:57.638Z,29.50
2019-03-09T04:07:25.895Z,29.40
2019-03-09T04:09:54.144Z,29.50
2019-03-09T04:12:22.430Z,29.50
2019-03-09T04:14:50.816Z,29.60
2019-03-09T04:17:19.172Z,29.60
2019-03-09T04:19:47.418Z,29.60
2019-03-09T04:22:15.917Z,29.60
2019-03-09T04:24:44.406Z,29.60
2019-03-09T04:27:12.681Z,29.60
2019-03-09T04:29:40.923Z,29.60
2019-03-09T04:32:09.170Z,29.60
2019-03-09T04:34:37.428Z,29.60
2019-03-09T04:37:05.664Z,29.70
2019-03-09T04:39:33.941Z,29.70
2019-03-09T04:42:02.173Z,29.70
2019-03-09T04:44:30.456Z,29.70
2019-03-09T04:46:58.692Z,29.70
2019-03-09T04:49:27.182Z,29.80
2019-03-09T04:51:55.453Z,29.80
2019-03-09T04:54:23.714Z,29.80
2019-03-09T04:56:52.030Z,29.80
2019-03-09T04:59:20.280Z,29.90
2019-03-09T05:01:48.541Z,29.90
2019-03-09T05:04:29.037Z,29.90
2019-03-09T05:06:57.305Z,30.00
2019-03-09T05:09:37.473Z,29.90
2019-03-09T05:12:05.734Z,30.00
2019-03-09T05:14:34.219Z,29.90
2019-03-09T05:17:02.481Z,29.90
2019-03-09T05:19:30.750Z,30.00
2019-03-09T05:21:59.021Z,30.00
2019-03-09T05:24:27.289Z,30.00
2019-03-09T05:26:55.882Z,30.00
2019-03-09T05:29:24.126Z,30.00
2019-03-09T05:31:52.369Z,30.00
2019-03-09T05:34:20.626Z,30.00
2019-03-09T05:36:48.892Z,30.00
2019-03-09T05:39:17.145Z,30.10
2019-03-09T05:41:45.404Z,30.10
2019-03-09T05:44:13.665Z,30.20
2019-03-09T05:46:41.912Z,30.10
2019-03-09T05:49:10.177Z,30.20
2019-03-09T05:51:38.426Z,30.30
2019-03-09T05:54:06.697Z,30.30
2019-03-09T05:56:34.944Z,30.40
2019-03-09T05:59:03.278Z,30.50
2019-03-09T06:01:31.573Z,30.50
2019-03-09T06:04:00.321Z,30.50
2019-03-09T06:06:28.686Z,30.50
2019-03-09T06:08:56.959Z,30.60
2019-03-09T06:11:25.208Z,30.50
2019-03-09T06:13:53.457Z,30.50
2019-03-09T06:16:21.730Z,30.50
2019-03-09T06:18:49.979Z,30.60
2019-03-09T06:21:18.240Z,30.60
2019-03-09T06:23:46.506Z,31.30
2019-03-09T06:26:14.821Z,30.70
2019-03-09T06:28:43.077Z,30.70
2019-03-09T06:31:11.340Z,30.70
2019-03-09T06:33:39.586Z,30.70
2019-03-09T06:36:10.941Z,30.70
2019-03-09T06:38:56.775Z,30.80
2019-03-09T06:41:40.105Z,30.80
2019-03-09T06:44:08.423Z,30.80
2019-03-09T06:46:36.954Z,31.00
2019-03-09T06:49:05.205Z,30.80
2019-03-09T06:51:33.467Z,30.90
2019-03-09T06:54:01.733Z,30.90
2019-03-09T06:56:30.218Z,30.90
2019-03-09T06:58:58.743Z,30.80
2019-03-09T07:01:26.986Z,30.80
2019-03-09T07:03:55.229Z,30.80
2019-03-09T07:06:23.485Z,30.90
2019-03-09T07:08:51.753Z,30.80
2019-03-09T07:11:19.999Z,30.90
2019-03-09T07:13:52.965Z,30.90
2019-03-09T07:16:19.090Z,30.90
2019-03-09T07:18:47.346Z,30.90
2019-03-09T07:21:15.609Z,30.90
2019-03-09T07:23:43.863Z,31.00
2019-03-09T07:26:12.118Z,31.10
2019-03-09T07:28:40.371Z,31.10
2019-03-09T07:31:08.616Z,31.10
2019-03-09T07:33:36.921Z,31.20
2019-03-09T07:36:05.297Z,31.30
2019-03-09T07:38:33.781Z,31.30
2019-03-09T07:41:02.070Z,31.20
2019-03-09T07:43:30.370Z,31.20
2019-03-09T07:45:58.628Z,31.40
2019-03-09T07:48:26.906Z,31.30
2019-03-09T07:50:55.154Z,31.30
2019-03-09T07:53:23.437Z,31.30
2019-03-09T07:55:51.700Z,31.30
2019-03-09T07:58:19.961Z,31.20
2019-03-09T08:00:48.233Z,31.30
2019-03-09T08:03:16.481Z,31.30
2019-03-09T08:05:44.853Z,31.40
2019-03-09T08:08:13.131Z,31.50
2019-03-09T08:10:41.444Z,32.10
2019-03-09T08:13:09.711Z,31.40
2019-03-09T08:15:37.958Z,31.30
2019-03-09T08:18:06.236Z,31.20
2019-03-09T08:20:34.745Z,31.10
2019-03-09T08:23:03.087Z,30.90
2019-03-09T08:25:31.328Z,30.80
2019-03-09T08:27:59.622Z,30.70
2019-03-09T08:30:28.436Z,30.60
2019-03-09T08:32:56.686Z,30.50
2019-03-09T08:35:24.961Z,30.50
2019-03-09T08:37:53.541Z,30.40
2019-03-09T08:40:22.137Z,30.40
2019-03-09T08:42:50.454Z,30.40
2019-03-09T08:45:19.647Z,30.40
2019-03-09T08:47:52.237Z,30.30
2019-03-09T08:50:21.791Z,30.30
2019-03-09T08:52:50.090Z,30.40
2019-03-09T08:55:18.439Z,30.40
2019-03-09T08:57:46.791Z,30.50
2019-03-09T09:00:23.636Z,30.60
2019-03-09T09:02:52.217Z,30.60
2019-03-09T09:05:20.457Z,30.60
2019-03-09T09:07:48.757Z,30.70
2019-03-09T09:10:17.024Z,30.70
2019-03-09T09:12:45.719Z,30.70
2019-03-09T09:15:17.736Z,30.90
2019-03-09T09:17:45.998Z,30.90
2019-03-09T09:20:22.705Z,31.00
2019-03-09T09:22:50.979Z,30.60
2019-03-09T09:25:19.222Z,30.80
2019-03-09T09:27:47.483Z,30.80
2019-03-09T09:30:27.337Z,30.60
2019-03-09T09:32:55.601Z,30.70
2019-03-09T09:35:23.877Z,30.70
2019-03-09T09:37:52.705Z,30.80
2019-03-09T09:40:22.626Z,30.90
2019-03-09T09:42:50.986Z,31.00
2019-03-09T09:45:19.498Z,30.90
2019-03-09T09:47:47.746Z,30.80
2019-03-09T09:50:16.561Z,30.50
2019-03-09T09:52:44.874Z,29.70
2019-03-09T09:55:18.039Z,29.60
2019-03-09T09:57:46.319Z,29.60
2019-03-09T10:00:25.465Z,29.90
2019-03-09T10:02:53.742Z,29.70
2019-03-09T10:05:22.426Z,29.80
2019-03-09T10:07:50.766Z,30.00
2019-03-09T10:10:21.309Z,29.90
2019-03-09T10:12:49.578Z,30.50
2019-03-09T10:15:30.162Z,29.50
2019-03-09T10:17:58.685Z,28.60
2019-03-09T10:20:26.965Z,28.00
2019-03-09T10:23:03.700Z,27.60
2019-03-09T10:25:25.222Z,27.40
2019-03-09T10:27:53.477Z,27.40
2019-03-09T10:30:25.102Z,27.50
2019-03-09T10:32:53.333Z,27.50
2019-03-09T10:35:21.601Z,27.60
2019-03-09T10:37:50.029Z,27.50
2019-03-09T10:40:18.293Z,27.50
2019-03-09T10:42:46.568Z,27.60
2019-03-09T10:45:16.386Z,27.50
2019-03-09T10:47:44.630Z,27.70
2019-03-09T10:50:14.977Z,28.00
2019-03-09T10:52:43.265Z,28.10
2019-03-09T10:55:19.400Z,28.20
2019-03-09T10:57:47.657Z,28.60
2019-03-09T11:00:19.163Z,29.00
2019-03-09T11:02:47.428Z,29.50
2019-03-09T11:05:15.677Z,30.30
2019-03-09T11:07:43.933Z,30.90
2019-03-09T11:10:12.207Z,31.40
2019-03-09T11:12:40.759Z,31.90
2019-03-09T11:15:09.301Z,32.30
2019-03-09T11:17:37.548Z,33.00
2019-03-09T11:20:09.135Z,33.10
2019-03-09T11:22:37.697Z,33.30
2019-03-09T11:25:06.300Z,32.80
2019-03-09T11:27:34.556Z,32.20
2019-03-09T11:30:03.074Z,32.60
2019-03-09T11:32:31.347Z,32.40
2019-03-09T11:34:59.602Z,32.80
2019-03-09T11:37:27.874Z,32.60
2019-03-09T11:39:56.132Z,32.80
2019-03-09T11:42:24.413Z,32.90
2019-03-09T11:44:52.938Z,33.10
2019-03-09T11:47:21.187Z,33.40
2019-03-09T11:49:49.469Z,33.10
2019-03-09T11:52:20.314Z,33.00
2019-03-09T11:54:47.722Z,33.10
2019-03-09T11:57:15.974Z,33.60
2019-03-09T11:59:49.345Z,33.70
2019-03-09T12:02:17.810Z,34.00
2019-03-09T12:04:47.324Z,33.80
2019-03-09T12:07:15.673Z,34.00
2019-03-09T12:09:43.933Z,34.10
2019-03-09T12:12:12.446Z,34.10
2019-03-09T12:14:40.714Z,34.00
2019-03-09T12:17:12.639Z,34.40
2019-03-09T12:19:38.941Z,34.10
2019-03-09T12:22:07.213Z,34.40
2019-03-09T12:24:35.722Z,34.00
2019-03-09T12:27:04.226Z,34.30
2019-03-09T12:29:32.714Z,34.50
2019-03-09T12:32:00.983Z,34.80
2019-03-09T12:34:29.231Z,34.80
2019-03-09T12:36:57.503Z,34.60
2019-03-09T12:39:25.749Z,34.90
2019-03-09T12:41:54.043Z,35.20
2019-03-09T12:44:22.557Z,34.80
2019-03-09T12:46:50.821Z,34.60
2019-03-09T12:49:19.171Z,35.60
2019-03-09T12:51:47.443Z,35.00
2019-03-09T12:54:15.699Z,35.10
2019-03-09T12:56:43.972Z,34.50
2019-03-09T12:59:12.346Z,34.60
2019-03-09T13:01:40.840Z,34.50
2019-03-09T13:04:10.857Z,34.40
2019-03-09T13:06:39.126Z,34.00
2019-03-09T13:09:07.393Z,33.50
2019-03-09T13:11:35.733Z,33.10
2019-03-09T13:14:04.006Z,32.60
2019-03-09T13:16:32.489Z,33.40
2019-03-09T13:19:01.002Z,31.10
2019-03-09T13:21:29.245Z,32.70
2019-03-09T13:23:57.516Z,32.90
2019-03-09T13:26:26.014Z,33.00
2019-03-09T13:28:54.274Z,33.50
2019-03-09T13:31:22.522Z,33.30
2019-03-09T13:33:50.785Z,33.10
2019-03-09T13:36:19.064Z,33.40
2019-03-09T13:38:47.313Z,33.70
2019-03-09T13:41:15.561Z,34.00
2019-03-09T13:43:44.075Z,33.20
2019-03-09T13:46:12.329Z,33.50
2019-03-09T13:48:40.669Z,33.60
2019-03-09T13:51:08.921Z,33.80
2019-03-09T13:53:37.189Z,33.80
2019-03-09T13:56:05.436Z,34.40
2019-03-09T13:58:33.701Z,34.60
2019-03-09T14:01:01.954Z,34.40
2019-03-09T14:03:30.224Z,34.70
2019-03-09T14:05:58.521Z,34.70
2019-03-09T14:08:27.013Z,34.70
2019-03-09T14:10:55.279Z,34.90
2019-03-09T14:13:23.526Z,34.90
2019-03-09T14:15:51.793Z,34.90
2019-03-09T14:18:20.278Z,35.20
2019-03-09T14:20:48.608Z,35.40
2019-03-09T14:23:16.900Z,35.00
2019-03-09T14:25:45.173Z,35.40
2019-03-09T14:28:13.438Z,35.10
2019-03-09T14:30:41.930Z,35.10
2019-03-09T14:33:10.169Z,35.20
2019-03-09T14:35:38.418Z,35.40
2019-03-09T14:38:06.700Z,35.80
2019-03-09T14:40:35.022Z,35.50
2019-03-09T14:43:03.294Z,36.80
2019-03-09T14:45:31.542Z,37.00
2019-03-09T14:47:59.821Z,37.00
2019-03-09T14:50:28.073Z,36.80
2019-03-09T14:52:56.320Z,37.40
2019-03-09T14:55:24.601Z,37.50
2019-03-09T14:57:52.849Z,37.60
2019-03-09T15:00:28.279Z,37.80
2019-03-09T15:02:56.546Z,37.90
2019-03-09T15:05:24.850Z,37.90
2019-03-09T15:07:53.093Z,38.00
2019-03-09T15:10:21.337Z,38.20
2019-03-09T15:12:49.683Z,38.30
2019-03-09T15:15:19.080Z,38.50
2019-03-09T15:17:47.357Z,38.60
2019-03-09T15:20:16.298Z,38.60
2019-03-09T15:22:44.889Z,38.90
2019-03-09T15:25:20.595Z,38.50
2019-03-09T15:27:48.849Z,38.50
2019-03-09T15:30:18.270Z,39.10
2019-03-09T15:32:46.513Z,39.80
2019-03-09T15:35:16.684Z,39.00
2019-03-09T15:37:45.021Z,39.40
2019-03-09T15:40:17.592Z,39.80
2019-03-09T15:42:45.950Z,39.60
2019-03-09T15:45:20.958Z,39.20
2019-03-09T15:47:49.222Z,39.00
2019-03-09T15:50:18.403Z,38.90
2019-03-09T15:52:46.690Z,38.90
2019-03-09T15:55:15.063Z,38.70
2019-03-09T15:57:43.413Z,38.70
2019-03-09T16:00:19.407Z,38.70
2019-03-09T16:05:21.518Z,39.80
2019-03-09T16:07:49.758Z,39.50
2019-03-09T16:10:19.486Z,39.80
2019-03-09T16:12:47.756Z,39.00
2019-03-09T16:15:16.454Z,38.80
2019-03-09T16:17:44.976Z,39.90
2019-03-09T16:20:16.506Z,39.90
2019-03-09T16:22:44.810Z,40.40
2019-03-09T16:25:13.109Z,39.60
2019-03-09T16:27:41.735Z,39.60
2019-03-09T16:30:22.968Z,39.50
2019-03-09T16:32:51.309Z,39.50
2019-03-09T16:35:19.544Z,39.20
2019-03-09T16:37:48.847Z,39.70
2019-03-09T16:40:19.385Z,39.70
2019-03-09T16:42:47.659Z,39.80
2019-03-09T16:45:15.911Z,40.10
2019-03-09T16:47:44.186Z,40.70
2019-03-09T16:50:14.242Z,40.10
2019-03-09T16:52:42.493Z,40.20
2019-03-09T16:55:10.960Z,40.10
2019-03-09T16:57:39.224Z,39.90
2019-03-09T17:00:19.366Z,39.70
2019-03-09T17:02:47.681Z,39.80
2019-03-09T17:05:15.962Z,39.80
2019-03-09T17:07:44.449Z,39.90
2019-03-09T17:10:14.813Z,40.40
2019-03-09T17:12:43.089Z,40.50
2019-03-09T17:15:22.009Z,40.70
2019-03-09T17:17:50.281Z,40.30
2019-03-09T17:20:18.581Z,39.40
2019-03-09T17:22:46.878Z,39.50
2019-03-09T17:25:15.465Z,39.70
2019-03-09T17:27:43.725Z,39.80
2019-03-09T17:30:17.697Z,40.40
2019-03-09T17:32:45.966Z,40.50
2019-03-09T17:35:14.318Z,39.50
2019-03-09T17:37:42.675Z,39.40
2019-03-09T17:40:12.754Z,39.90
2019-03-09T17:42:41.013Z,39.80
2019-03-09T17:45:12.370Z,39.40
2019-03-09T17:47:40.902Z,39.70
2019-03-09T17:50:11.401Z,40.10
2019-03-09T17:52:39.900Z,40.20
2019-03-09T17:55:09.698Z,40.10
2019-03-09T17:57:37.977Z,39.70
2019-03-09T18:00:11.435Z,39.70
2019-03-09T18:02:39.866Z,39.90
2019-03-09T18:05:08.378Z,39.50
2019-03-09T18:07:36.649Z,39.90
2019-03-09T18:10:25.635Z,40.00
2019-03-09T18:12:53.953Z,39.90
2019-03-09T18:15:22.220Z,39.90
2019-03-09T18:17:50.469Z,39.80
2019-03-09T18:20:18.738Z,39.70
2019-03-09T18:22:46.981Z,39.80
2019-03-09T18:25:15.490Z,39.90
2019-03-09T18:27:43.732Z,39.90
2019-03-09T18:30:12.669Z,39.80
2019-03-09T18:32:41.000Z,39.90
2019-03-09T18:35:10.682Z,39.80
2019-03-09T18:37:38.944Z,39.70
2019-03-09T18:40:09.929Z,39.60
2019-03-09T18:42:38.205Z,39.60
2019-03-09T18:45:09.968Z,39.50
2019-03-09T18:47:38.240Z,39.50
2019-03-09T18:50:07.151Z,39.40
2019-03-09T18:52:35.417Z,39.10
2019-03-09T18:55:04.466Z,39.10
2019-03-09T18:57:32.721Z,38.90
2019-03-09T19:00:00.984Z,38.90
2019-03-09T19:02:29.242Z,38.90
2019-03-09T19:04:57.485Z,39.00
2019-03-09T19:07:25.749Z,38.90
2019-03-09T19:09:53.998Z,38.80
2019-03-09T19:12:22.261Z,38.90
2019-03-09T19:14:50.519Z,38.90
2019-03-09T19:17:19.028Z,39.00
2019-03-09T19:19:47.293Z,38.90
2019-03-09T19:22:15.561Z,38.80
2019-03-09T19:24:44.058Z,38.80
2019-03-09T19:27:12.325Z,38.70
2019-03-09T19:29:40.805Z,38.70
2019-03-09T19:32:09.070Z,38.70
2019-03-09T19:34:37.637Z,38.60
2019-03-09T19:37:05.925Z,38.50
2019-03-09T19:39:34.408Z,38.70
2019-03-09T19:42:02.910Z,38.70
2019-03-09T19:44:31.153Z,39.20
2019-03-09T19:46:59.417Z,38.50
2019-03-09T19:49:27.677Z,38.50
2019-03-09T19:51:55.941Z,38.60
2019-03-09T19:54:24.185Z,38.60
2019-03-09T19:56:52.449Z,38.60
2019-03-09T19:59:20.717Z,38.50
2019-03-09T20:01:48.966Z,38.50
2019-03-09T20:04:17.228Z,38.50
2019-03-09T20:06:45.485Z,38.50
2019-03-09T20:09:13.759Z,38.50
2019-03-09T20:11:42.259Z,38.40
2019-03-09T20:14:10.497Z,38.40
2019-03-09T20:16:39.010Z,38.40
2019-03-09T20:19:07.249Z,38.30
2019-03-09T20:21:35.508Z,38.30
2019-03-09T20:24:03.778Z,38.40
2019-03-09T20:26:32.017Z,38.40
2019-03-09T20:29:00.274Z,38.40
2019-03-09T20:31:28.536Z,38.40
2019-03-09T20:33:56.818Z,38.40
2019-03-09T20:36:25.083Z,38.40
2019-03-09T20:38:53.381Z,38.50
2019-03-09T20:41:21.641Z,38.60
2019-03-09T20:43:49.910Z,38.60
2019-03-09T20:46:18.156Z,38.70
2019-03-09T20:48:46.427Z,38.70
2019-03-09T20:51:14.699Z,38.80
2019-03-09T20:53:43.182Z,38.90
2019-03-09T20:56:11.509Z,39.00
2019-03-09T20:58:39.796Z,39.10
2019-03-09T21:01:08.290Z,39.30
2019-03-09T21:03:36.853Z,39.20
2019-03-09T21:06:05.430Z,39.40
2019-03-09T21:08:33.703Z,39.50
2019-03-09T21:11:04.213Z,39.50
2019-03-09T21:13:31.942Z,39.70
2019-03-09T21:16:00.219Z,39.70
2019-03-09T21:18:28.693Z,39.70
2019-03-09T21:20:56.956Z,39.70
2019-03-09T21:23:25.449Z,39.70
2019-03-09T21:25:53.717Z,39.80
2019-03-09T21:28:21.975Z,39.80
2019-03-09T21:30:50.459Z,39.80
2019-03-09T21:33:18.970Z,39.90
2019-03-09T21:35:47.213Z,39.80
2019-03-09T21:38:15.725Z,39.70
2019-03-09T21:40:44.239Z,39.70
2019-03-09T21:43:12.548Z,39.70
2019-03-09T21:45:40.798Z,39.50
2019-03-09T21:48:09.050Z,39.20
2019-03-09T21:50:37.566Z,39.10
2019-03-09T21:53:06.056Z,39.00
2019-03-09T21:55:34.306Z,38.80
2019-03-09T21:58:02.577Z,38.70
2019-03-09T22:00:30.821Z,38.40
2019-03-09T22:02:59.338Z,38.30
2019-03-09T22:05:27.583Z,38.20
2019-03-09T22:07:56.116Z,38.10
2019-03-09T22:10:24.465Z,38.10
2019-03-09T22:12:52.709Z,37.90
2019-03-09T22:15:20.968Z,37.70
2019-03-09T22:17:49.242Z,37.50
2019-03-09T22:20:17.726Z,37.50
2019-03-09T22:22:45.998Z,37.40
2019-03-09T22:25:15.277Z,37.30
2019-03-09T22:27:43.983Z,37.10
2019-03-09T22:30:17.970Z,37.00
2019-03-09T22:32:46.236Z,36.90
2019-03-09T22:35:14.657Z,36.70
2019-03-09T22:37:42.921Z,36.60
2019-03-09T22:40:13.562Z,36.50
2019-03-09T22:42:41.843Z,36.30
2019-03-09T22:45:11.720Z,36.80
2019-03-09T22:47:39.977Z,36.00
2019-03-09T22:50:13.693Z,35.90
2019-03-09T22:52:41.933Z,35.80
2019-03-09T22:55:10.434Z,35.60
2019-03-09T22:57:38.681Z,35.30
2019-03-09T23:00:10.148Z,35.20
2019-03-09T23:02:38.452Z,35.00
2019-03-09T23:05:08.577Z,34.90
2019-03-09T23:07:36.821Z,34.70
2019-03-09T23:10:10.825Z,34.50
2019-03-09T23:12:39.081Z,34.40
2019-03-09T23:15:10.390Z,34.20
2019-03-09T23:17:38.649Z,34.00
2019-03-09T23:20:09.558Z,33.80
2019-03-09T23:22:38.053Z,33.70
2019-03-09T23:25:07.098Z,33.50
2019-03-09T23:27:35.505Z,33.40
2019-03-09T23:30:07.211Z,33.20
2019-03-09T23:32:35.521Z,33.00
2019-03-09T23:35:04.025Z,32.80
2019-03-09T23:37:32.518Z,32.70
2019-03-09T23:40:01.045Z,32.70
2019-03-09T23:42:29.289Z,32.40
2019-03-09T23:47:50.294Z,32.20
2019-03-09T23:50:31.751Z,31.60
2019-03-09T23:53:12.901Z,31.30
2019-03-09T23:55:53.933Z,31.20
2019-03-09T23:58:35.033Z,31.00
